Time;durP1;ratioP1;P1;durP2;ratioP2;P2;SDS_P1;SDS_P2;PMS_P1;PMS_P2;Temp;Humidity;BMP_temperature;BMP_pressure;BME280_temperature;BME280_humidity;BME280_pressure;Samples;Min_cycle;Max_cycle;Signal;HPM_P1;HPM_P2
2021/04/13 00:02:19;;;;;;;13.00;9.63;;;8.50;94.30;;;;;;5048521;28;20108;-84
2021/04/13 00:04:48;;;;;;;9.30;8.10;;;8.40;94.40;;;;;;5049505;28;20029;-85
2021/04/13 00:07:15;;;;;;;12.23;8.88;;;8.30;94.50;;;;;;5048049;28;20033;-86
2021/04/13 00:09:43;;;;;;;10.65;8.68;;;8.20;94.60;;;;;;5047897;28;20029;-85
2021/04/13 00:12:14;;;;;;;12.77;9.70;;;8.20;94.70;;;;;;5047913;28;20027;-84
2021/04/13 00:14:45;;;;;;;11.13;8.73;;;8.20;94.90;;;;;;5049688;28;20028;-86
2021/04/13 00:17:14;;;;;;;11.70;8.65;;;8.10;95.00;;;;;;5047769;28;20021;-83
2021/04/13 00:19:59;;;;;;;10.90;8.45;;;8.10;95.00;;;;;;5047836;28;20025;-86
2021/04/13 00:22:26;;;;;;;10.35;7.88;;;8.10;95.10;;;;;;5048041;28;20033;-85
2021/04/13 00:24:53;;;;;;;11.55;9.18;;;8.00;95.10;;;;;;5031302;28;20033;-85
2021/04/13 00:27:22;;;;;;;12.85;8.30;;;8.00;95.20;;;;;;5031235;28;20033;-84
2021/04/13 00:29:48;;;;;;;;;;;8.00;95.30;;;;;;5049452;28;20472;-86
2021/04/13 00:32:20;;;;;;;11.65;8.57;;;8.00;95.20;;;;;;5047659;28;19962;-83
2021/04/13 00:37:23;;;;;;;11.95;8.30;;;8.00;95.10;;;;;;5047994;28;20364;-85
2021/04/13 00:39:51;;;;;;;14.23;8.55;;;8.00;95.20;;;;;;5049007;28;20048;-85
2021/04/13 00:42:30;;;;;;;10.95;8.25;;;7.90;95.30;;;;;;5047380;28;20032;-84
2021/04/13 00:45:01;;;;;;;11.73;8.87;;;7.90;95.40;;;;;;5048734;28;20043;-84
2021/04/13 00:47:33;;;;;;;12.02;8.32;;;7.80;95.40;;;;;;5047735;28;20325;-85
2021/04/13 00:50:16;;;;;;;13.27;8.40;;;7.80;95.50;;;;;;5048498;28;20025;-85
2021/04/13 00:52:49;;;;;;;11.88;8.18;;;7.70;95.60;;;;;;5047888;28;20314;-84
2021/04/13 00:55:18;;;;;;;13.68;7.95;;;7.70;95.70;;;;;;5047404;28;20025;-86
2021/04/13 00:57:51;;;;;;;10.07;8.23;;;7.60;95.70;;;;;;5047314;28;20597;-83
2021/04/13 01:00:31;;;;;;;10.73;8.18;;;7.60;95.70;;;;;;5048527;28;20438;-82
2021/04/13 01:03:02;;;;;;;10.77;8.57;;;7.60;95.90;;;;;;5047266;28;20040;-85
2021/04/13 01:05:38;;;;;;;13.77;8.98;;;7.60;95.90;;;;;;5047239;28;20025;-86
2021/04/13 01:08:24;;;;;;;9.90;7.53;;;7.60;95.90;;;;;;5048134;28;20031;-84
2021/04/13 01:10:54;;;;;;;10.70;8.02;;;7.50;96.10;;;;;;5048571;28;20033;-83
2021/04/13 01:13:22;;;;;;;;;;;7.50;96.00;;;;;;5047528;28;20021;-84
2021/04/13 01:15:52;;;;;;;11.25;8.05;;;7.50;95.90;;;;;;5047058;28;19912;-86
2021/04/13 01:18:19;;;;;;;;;;;7.50;95.80;;;;;;5047176;28;20479;-86
2021/04/13 01:20:56;;;;;;;15.27;7.80;;;7.40;95.70;;;;;;5046885;28;19908;-84
2021/04/13 01:23:27;;;;;;;12.50;8.95;;;7.40;95.60;;;;;;5046782;28;20502;-84
2021/04/13 01:26:00;;;;;;;10.27;7.90;;;7.30;95.70;;;;;;5046890;28;20025;-84
2021/04/13 01:28:31;;;;;;;11.85;8.05;;;7.30;95.90;;;;;;5047831;28;20032;-86
2021/04/13 01:31:06;;;;;;;10.63;8.20;;;7.20;96.00;;;;;;5046624;28;20026;-84
2021/04/13 01:33:43;;;;;;;12.00;8.57;;;7.20;96.10;;;;;;5046926;28;20575;-85
2021/04/13 01:36:29;;;;;;;11.93;8.55;;;7.20;96.20;;;;;;5046597;28;20055;-83
2021/04/13 01:39:23;;;;;;;11.10;7.78;;;7.20;96.30;;;;;;5046789;28;20131;-83
2021/04/13 01:42:00;;;;;;;10.00;8.05;;;7.10;96.40;;;;;;5046631;28;20037;-84
2021/04/13 01:44:39;;;;;;;12.32;8.18;;;7.10;96.30;;;;;;5047104;28;20124;-87
2021/04/13 01:47:06;;;;;;;;;;;7.10;96.40;;;;;;5047065;28;20060;-85
2021/04/13 01:49:44;;;;;;;9.57;7.43;;;7.10;96.30;;;;;;5052037;28;19908;-87
2021/04/13 01:52:14;;;;;;;10.98;7.63;;;7.10;96.20;;;;;;5050591;28;20032;-85
2021/04/13 01:54:40;;;;;;;9.05;7.32;;;7.10;96.20;;;;;;5050715;28;20388;-86
2021/04/13 01:57:25;;;;;;;11.30;7.22;;;7.00;96.30;;;;;;5034315;28;20029;-83
2021/04/13 01:59:54;;;;;;;10.75;7.50;;;7.00;96.50;;;;;;5051896;28;20035;-85
2021/04/13 02:02:32;;;;;;;9.45;7.60;;;7.00;96.50;;;;;;5050485;28;20025;-83
2021/04/13 02:05:06;;;;;;;10.75;7.55;;;7.00;96.60;;;;;;5052178;28;20029;-85
2021/04/13 02:07:52;;;;;;;9.65;7.07;;;7.00;96.60;;;;;;5050476;28;20032;-84
2021/04/13 02:10:27;;;;;;;11.48;7.72;;;7.00;96.60;;;;;;5051648;28;20028;-86
2021/04/13 02:12:59;;;;;;;9.55;7.50;;;7.00;96.60;;;;;;5051681;28;20028;-84
2021/04/13 02:15:28;;;;;;;10.02;7.15;;;6.90;96.60;;;;;;5051547;28;20059;-85
2021/04/13 02:17:57;;;;;;;;;;;6.90;96.70;;;;;;5050819;28;20029;-84
2021/04/13 02:20:44;;;;;;;14.88;8.38;;;6.90;96.60;;;;;;5051810;28;19904;-86
2021/04/13 02:23:12;;;;;;;14.57;8.43;;;6.80;96.60;;;;;;5051567;28;20031;-84
2021/04/13 02:25:40;;;;;;;9.98;7.50;;;6.80;96.50;;;;;;5050413;28;20139;-86
2021/04/13 02:28:06;;;;;;;9.35;6.93;;;6.80;96.60;;;;;;5051135;28;20025;-85
2021/04/13 02:30:46;;;;;;;11.98;8.30;;;6.80;96.70;;;;;;5050112;28;20047;-86
2021/04/13 02:33:18;;;;;;;10.90;7.65;;;6.70;96.80;;;;;;5049925;28;20017;-83
2021/04/13 02:35:45;;;;;;;12.95;7.75;;;6.70;96.80;;;;;;5051289;28;20139;-85
2021/04/13 02:38:16;;;;;;;9.38;6.97;;;6.70;97.00;;;;;;5049529;28;20024;-85
2021/04/13 02:41:11;;;;;;;9.00;7.05;;;6.70;96.90;;;;;;5049774;28;20033;-86
2021/04/13 02:43:42;;;;;;;9.20;6.68;;;6.60;97.00;;;;;;5049854;28;20053;-85
2021/04/13 02:46:15;;;;;;;9.85;6.72;;;6.60;96.90;;;;;;5049797;28;20029;-85
2021/04/13 02:48:49;;;;;;;10.90;6.82;;;6.60;97.00;;;;;;5049565;28;20021;-85
2021/04/13 02:51:17;;;;;;;10.45;7.07;;;6.60;97.00;;;;;;5049557;28;20529;-84
2021/04/13 02:53:56;;;;;;;10.23;6.85;;;6.60;97.00;;;;;;5049701;28;20021;-83
2021/04/13 02:56:35;;;;;;;9.27;6.73;;;6.50;97.20;;;;;;5049614;28;20117;-84
2021/04/13 02:59:08;;;;;;;9.77;6.22;;;6.50;97.20;;;;;;5048708;28;20025;-86
2021/04/13 03:01:35;;;;;;;10.85;7.07;;;6.50;97.20;;;;;;5049369;28;20037;-84
2021/04/13 03:04:07;;;;;;;11.00;7.55;;;6.50;97.20;;;;;;5049419;28;20057;-86
2021/04/13 03:06:48;;;;;;;12.38;7.70;;;6.50;97.30;;;;;;5049298;28;20401;-85
2021/04/13 03:09:15;;;;;;;11.23;7.05;;;6.50;97.40;;;;;;5049207;28;20029;-85
2021/04/13 03:11:47;;;;;;;17.02;6.75;;;6.50;97.40;;;;;;5049275;28;20024;-86
2021/04/13 03:14:15;;;;;;;9.07;6.75;;;6.40;97.40;;;;;;5049174;28;20064;-85
2021/04/13 03:16:45;;;;;;;10.80;6.72;;;6.50;97.40;;;;;;5050266;28;20013;-84
2021/04/13 03:19:16;;;;;;;11.05;7.60;;;6.40;97.40;;;;;;5048888;28;20033;-86
2021/04/13 03:21:52;;;;;;;11.68;7.22;;;6.40;97.40;;;;;;5049018;28;20049;-86
2021/04/13 03:24:23;;;;;;;11.15;7.15;;;6.40;97.40;;;;;;5048812;28;20496;-83
2021/04/13 03:26:54;;;;;;;10.05;6.82;;;6.40;97.40;;;;;;5050127;28;20021;-85
2021/04/13 03:29:50;;;;;;;9.75;6.65;;;6.30;97.50;;;;;;5049948;28;20028;-84
2021/04/13 03:32:20;;;;;;;9.55;6.28;;;6.40;97.60;;;;;;5040731;28;20029;-85
2021/04/13 03:34:47;;;;;;;9.02;6.72;;;6.30;97.40;;;;;;5048556;28;20072;-84
2021/04/13 03:37:14;;;;;;;11.32;7.03;;;6.30;97.40;;;;;;5048906;28;20033;-87
2021/04/13 03:39:43;;;;;;;10.40;7.03;;;6.30;97.50;;;;;;5048771;28;20025;-86
2021/04/13 03:42:21;;;;;;;16.80;7.18;;;6.30;97.50;;;;;;5050048;28;20396;-84
2021/04/13 03:44:51;;;;;;;10.23;7.07;;;6.30;97.60;;;;;;5049843;28;20117;-86
2021/04/13 03:47:25;;;;;;;10.90;7.55;;;6.30;97.60;;;;;;5048660;28;20040;-86
2021/04/13 03:49:52;;;;;;;9.65;6.32;;;6.20;97.60;;;;;;5048437;28;20506;-86
2021/04/13 03:52:31;;;;;;;10.93;6.63;;;6.20;97.60;;;;;;5048294;28;20025;-84
2021/04/13 03:54:56;;;;;;;9.10;6.93;;;6.20;97.70;;;;;;5048395;28;20021;-84
2021/04/13 03:57:32;;;;;;;10.68;7.28;;;6.20;97.70;;;;;;5031572;28;20043;-86
2021/04/13 04:00:02;;;;;;;10.23;6.72;;;6.20;97.80;;;;;;5049807;28;20083;-86
2021/04/13 04:02:30;;;;;;;13.85;8.25;;;6.20;97.70;;;;;;5048221;28;20121;-85
2021/04/13 04:05:24;;;;;;;12.82;7.13;;;6.10;97.70;;;;;;5048197;28;20029;-85
2021/04/13 04:10:32;;;;;;;10.23;6.70;;;6.10;97.80;;;;;;5048142;28;20476;-85
2021/04/13 04:12:58;;;;;;;9.63;6.95;;;6.10;97.90;;;;;;5047657;28;20112;-84
2021/04/13 04:15:36;;;;;;;11.77;7.30;;;6.10;97.80;;;;;;5049370;28;20101;-85
2021/04/13 04:18:02;;;;;;;9.98;7.18;;;6.10;97.90;;;;;;5047935;28;20056;-86
2021/04/13 04:20:33;;;;;;;10.13;6.90;;;6.10;97.90;;;;;;5031363;28;20106;-83
2021/04/13 04:23:00;;;;;;;10.88;7.57;;;6.10;97.90;;;;;;5047963;28;20029;-83
2021/04/13 04:25:32;;;;;;;10.55;6.63;;;6.10;97.90;;;;;;5047623;28;20036;-85
2021/04/13 04:28:02;;;;;;;10.90;6.53;;;6.10;98.00;;;;;;5049189;28;20111;-85
2021/04/13 04:30:33;;;;;;;10.48;7.20;;;6.00;98.00;;;;;;5048928;28;20107;-86
2021/04/13 04:33:02;;;;;;;8.73;6.53;;;6.00;98.00;;;;;;5047644;28;20017;-85
2021/04/13 04:35:37;;;;;;;7.63;5.80;;;6.00;98.00;;;;;;5047615;28;20049;-84
2021/04/13 04:38:22;;;;;;;12.82;7.18;;;6.00;98.00;;;;;;5047737;28;20267;-86
2021/04/13 04:40:47;;;;;;;8.30;6.00;;;6.00;98.10;;;;;;5048834;28;20043;-83
2021/04/13 04:43:15;;;;;;;9.20;6.53;;;6.00;98.00;;;;;;5047563;28;20387;-83
2021/04/13 04:45:43;;;;;;;6.60;5.35;;;6.00;98.00;;;;;;5048718;28;20110;-86
2021/04/13 04:48:29;;;;;;;14.10;7.50;;;5.90;98.10;;;;;;5048314;28;20044;-86
2021/04/13 04:51:02;;;;;;;9.95;6.57;;;5.80;98.20;;;;;;5047743;28;20040;-85
2021/04/13 04:53:30;;;;;;;10.55;6.35;;;5.80;98.10;;;;;;5047692;28;20025;-85
2021/04/13 04:55:57;;;;;;;6.47;5.32;;;5.80;98.10;;;;;;5047269;28;20597;-85
2021/04/13 04:58:24;;;;;;;8.43;5.95;;;5.80;98.00;;;;;;5030685;28;20025;-85
2021/04/13 05:00:51;;;;;;;9.50;6.32;;;5.70;98.00;;;;;;5048384;28;20384;-86
2021/04/13 05:03:19;;;;;;;10.18;6.30;;;5.70;98.00;;;;;;5030889;28;20455;-85
2021/04/13 05:05:44;;;;;;;13.20;7.13;;;5.70;98.00;;;;;;5047215;28;20037;-82
2021/04/13 05:08:11;;;;;;;9.10;6.57;;;5.60;97.90;;;;;;5047251;28;20079;-84
2021/04/13 05:10:36;;;;;;;8.63;6.75;;;5.60;97.90;;;;;;5046933;28;20025;-86
2021/04/13 05:13:02;;;;;;;11.77;7.03;;;5.60;97.90;;;;;;5030666;28;20438;-83
2021/04/13 05:15:28;;;;;;;11.50;6.43;;;5.60;97.90;;;;;;5030384;28;20025;-85
2021/04/13 05:17:54;;;;;;;9.05;6.50;;;5.60;97.90;;;;;;5048154;28;20021;-85
2021/04/13 05:20:20;;;;;;;9.50;6.57;;;5.60;97.90;;;;;;5030497;28;20159;-83
2021/04/13 05:22:45;;;;;;;13.43;7.85;;;5.50;98.00;;;;;;5047946;28;20029;-86
2021/04/13 05:25:12;;;;;;;10.77;6.90;;;5.50;98.00;;;;;;5047426;28;20025;-85
2021/04/13 05:27:39;;;;;;;13.75;7.43;;;5.50;98.00;;;;;;5047471;28;20032;-85
2021/04/13 05:30:06;;;;;;;11.55;7.07;;;5.60;98.10;;;;;;5049294;28;20036;-85
2021/04/13 05:32:32;;;;;;;12.80;6.68;;;5.50;98.00;;;;;;5048793;28;20097;-85
2021/04/13 05:34:57;;;;;;;13.95;7.40;;;5.50;98.00;;;;;;5013611;28;20131;-83
2021/04/13 05:37:25;;;;;;;9.80;6.25;;;5.50;98.00;;;;;;5046478;28;20069;-84
2021/04/13 05:39:51;;;;;;;11.45;6.55;;;5.50;98.00;;;;;;5046872;28;20480;-83
2021/04/13 05:42:26;;;;;;;11.23;7.10;;;5.50;98.00;;;;;;5046919;28;20033;-85
2021/04/13 05:44:54;;;;;;;12.82;7.63;;;5.50;98.00;;;;;;5046682;28;20025;-85
2021/04/13 05:47:20;;;;;;;10.32;7.10;;;5.50;98.00;;;;;;5046585;28;20035;-84
2021/04/13 05:49:46;;;;;;;10.98;7.38;;;5.50;98.00;;;;;;5013732;28;20408;-83
2021/04/13 05:52:12;;;;;;;13.00;6.68;;;5.50;98.00;;;;;;5030190;28;20032;-84
2021/04/13 05:54:37;;;;;;;10.88;6.57;;;5.60;98.00;;;;;;5046599;28;20061;-83
2021/04/13 05:57:03;;;;;;;11.45;7.78;;;5.60;98.00;;;;;;5047151;28;20032;-82
2021/04/13 05:59:32;;;;;;;14.27;7.82;;;5.60;98.00;;;;;;5030048;28;20056;-83
2021/04/13 06:01:58;;;;;;;12.27;6.78;;;5.70;98.10;;;;;;5030565;28;20656;-83
2021/04/13 06:04:24;;;;;;;11.13;6.03;;;5.70;98.00;;;;;;5013685;28;20029;-83
2021/04/13 06:06:49;;;;;;;10.07;7.05;;;5.80;98.00;;;;;;5029756;28;20094;-85
2021/04/13 06:09:16;;;;;;;9.15;6.43;;;5.80;97.90;;;;;;5030160;28;20494;-83
2021/04/13 06:11:42;;;;;;;10.70;6.60;;;5.90;97.90;;;;;;5048372;28;20049;-83
2021/04/13 06:14:08;;;;;;;11.90;5.95;;;5.90;98.00;;;;;;5047083;28;20052;-83
2021/04/13 06:16:37;;;;;;;14.05;6.95;;;5.90;97.80;;;;;;5047038;28;20101;-84
2021/04/13 06:19:03;;;;;;;10.27;7.45;;;5.90;97.90;;;;;;5047182;28;20029;-83
2021/04/13 06:21:29;;;;;;;10.70;7.30;;;6.00;97.90;;;;;;5046787;28;20365;-85
2021/04/13 06:23:55;;;;;;;9.30;5.75;;;6.10;97.90;;;;;;5029999;28;20116;-87
2021/04/13 06:26:22;;;;;;;10.15;6.38;;;6.10;97.90;;;;;;5046851;28;20203;-83
2021/04/13 06:28:48;;;;;;;9.38;6.85;;;6.20;97.90;;;;;;5046960;28;20025;-83
2021/04/13 06:31:14;;;;;;;11.27;6.57;;;6.30;97.80;;;;;;5047289;28;20542;-84
2021/04/13 06:33:39;;;;;;;12.40;6.43;;;6.40;97.90;;;;;;5048110;28;20032;-85
2021/04/13 06:36:08;;;;;;;10.93;7.45;;;6.40;97.80;;;;;;5033779;28;20123;-86
2021/04/13 06:38:37;;;;;;;11.35;7.38;;;6.50;97.80;;;;;;5050725;28;20063;-84
2021/04/13 06:41:37;;;;;;;8.98;6.05;;;6.60;97.90;;;;;;5051522;28;20104;-84
2021/04/13 06:44:34;;;;;;;8.40;6.40;;;6.70;98.10;;;;;;5050404;28;20494;-86
2021/04/13 06:47:35;;;;;;;12.13;6.45;;;6.80;98.00;;;;;;5052193;28;20361;-86
2021/04/13 06:50:04;;;;;;;11.00;6.50;;;6.80;98.00;;;;;;5049767;28;20025;-84
2021/04/13 06:53:05;;;;;;;10.65;6.35;;;6.90;97.80;;;;;;5049240;28;20031;-85
2021/04/13 06:55:51;;;;;;;8.68;5.68;;;7.00;97.90;;;;;;5032251;28;20163;-83
2021/04/13 06:58:32;;;;;;;9.15;5.68;;;7.10;97.90;;;;;;5050884;28;20112;-83
2021/04/13 07:01:25;;;;;;;11.70;5.38;;;7.20;97.90;;;;;;5050650;28;20025;-84
2021/04/13 07:04:12;;;;;;;9.10;5.65;;;7.30;98.00;;;;;;5051241;28;20132;-84
2021/04/13 07:06:40;;;;;;;7.70;4.65;;;7.50;98.10;;;;;;5050972;28;20031;-82
2021/04/13 07:09:18;;;;;;;6.75;4.68;;;7.80;98.40;;;;;;5049999;28;20025;-83
2021/04/13 07:12:11;;;;;;;9.45;5.82;;;8.20;98.20;;;;;;5049400;28;20028;-83
2021/04/13 07:14:55;;;;;;;8.73;4.75;;;8.60;97.70;;;;;;5049208;28;20025;-83
2021/04/13 07:17:43;;;;;;;10.32;5.18;;;8.80;96.90;;;;;;5049360;28;20039;-83
2021/04/13 07:20:11;;;;;;;7.72;4.88;;;8.80;96.60;;;;;;5048985;28;20029;-83
2021/04/13 07:23:00;;;;;;;8.10;4.82;;;8.80;96.60;;;;;;5050147;28;20086;-84
2021/04/13 07:25:35;;;;;;;9.47;5.20;;;8.70;96.70;;;;;;5049721;28;20567;-86
2021/04/13 07:28:06;;;;;;;8.10;4.78;;;8.70;97.00;;;;;;5050207;28;20494;-83
2021/04/13 07:30:43;;;;;;;9.77;5.00;;;9.00;97.50;;;;;;5048415;28;20079;-85
2021/04/13 07:33:13;;;;;;;8.30;5.30;;;9.70;98.10;;;;;;5049004;28;20044;-83
2021/04/13 07:35:40;;;;;;;7.22;4.60;;;10.60;97.10;;;;;;5050025;28;20044;-82
2021/04/13 07:38:20;;;;;;;10.23;5.10;;;11.00;95.10;;;;;;5031921;28;20029;-84
2021/04/13 07:40:49;;;;;;;7.72;4.55;;;11.20;95.50;;;;;;5048278;28;20446;-83
2021/04/13 07:43:21;;;;;;;6.25;3.75;;;11.70;95.70;;;;;;5050296;28;20036;-83
2021/04/13 07:46:11;;;;;;;7.32;4.75;;;12.40;95.10;;;;;;5048031;28;20063;-81
2021/04/13 07:49:04;;;;;;;6.25;4.45;;;12.90;94.00;;;;;;5047496;28;20091;-84
2021/04/13 07:51:41;;;;;;;9.82;5.75;;;13.30;93.60;;;;;;5047754;28;20025;-85
2021/04/13 07:54:12;;;;;;;5.30;3.92;;;14.00;93.90;;;;;;5048730;28;20052;-83
2021/04/13 07:56:50;;;;;;;6.88;4.00;;;15.10;93.30;;;;;;5047385;28;20025;-83
2021/04/13 07:59:31;;;;;;;10.35;4.90;;;16.30;91.80;;;;;;5049237;28;20519;-83
2021/04/13 08:01:57;;;;;;;5.53;3.53;;;17.60;89.90;;;;;;5047854;28;20084;-83
2021/04/13 08:04:26;;;;;;;5.40;3.70;;;18.50;86.30;;;;;;5048744;28;20442;-84
2021/04/13 08:07:13;;;;;;;5.90;4.15;;;19.20;81.40;;;;;;5047539;28;20403;-78
2021/04/13 08:09:46;;;;;;;5.68;3.83;;;19.60;78.60;;;;;;5047768;28;20034;-82
2021/04/13 08:12:31;;;;;;;5.93;3.70;;;20.30;77.50;;;;;;5047317;28;20083;-82
2021/04/13 08:14:56;;;;;;;6.43;3.50;;;20.90;75.70;;;;;;5047083;28;20376;-83
2021/04/13 08:17:24;;;;;;;5.70;3.13;;;21.40;73.30;;;;;;5048874;28;20025;-84
2021/04/13 08:20:11;;;;;;;6.68;3.15;;;22.00;71.10;;;;;;5048732;28;20025;-83
2021/04/13 08:23:03;;;;;;;6.82;3.15;;;22.30;68.30;;;;;;5048954;28;20050;-82
2021/04/13 08:25:50;;;;;;;4.20;2.47;;;22.70;66.50;;;;;;5047191;28;20032;-83
2021/04/13 08:29:00;;;;;;;4.57;2.90;;;23.00;64.30;;;;;;5048402;28;20029;-84
2021/04/13 08:34:43;;;;;;;8.00;3.00;;;23.40;62.80;;;;;;5047655;28;20035;-84
2021/04/13 08:37:28;;;;;;;7.50;2.63;;;23.70;61.80;;;;;;5046619;28;20082;-83
2021/04/13 08:40:13;;;;;;;4.75;2.60;;;23.80;59.90;;;;;;5047091;28;20036;-83
2021/04/13 08:42:54;;;;;;;6.07;2.33;;;23.40;58.40;;;;;;5046990;28;20188;-83
2021/04/13 08:45:31;;;;;;;6.35;2.90;;;23.00;57.70;;;;;;5048084;28;20025;-84
2021/04/13 08:48:11;;;;;;;4.95;2.20;;;22.70;58.60;;;;;;5047642;28;20033;-84
2021/04/13 08:50:41;;;;;;;4.40;2.35;;;23.10;59.10;;;;;;5047033;28;20029;-74
2021/04/13 08:53:13;;;;;;;;;;;23.70;58.50;;;;;;5048288;28;20017;-85
2021/04/13 08:55:45;;;;;;;8.50;2.65;;;24.20;58.80;;;;;;5047800;28;20291;-83
2021/04/13 08:58:14;;;;;;;3.95;2.67;;;24.60;56.70;;;;;;5045684;28;20021;-85
2021/04/13 09:00:56;;;;;;;4.45;2.15;;;24.80;55.20;;;;;;5046029;28;20025;-83
2021/04/13 09:03:27;;;;;;;5.43;2.92;;;24.80;54.40;;;;;;5046304;28;20064;-83
2021/04/13 09:06:16;;;;;;;2.88;2.17;;;25.20;55.00;;;;;;5046583;28;20226;-84
2021/04/13 09:08:42;;;;;;;;;;;25.80;54.90;;;;;;5047197;28;20029;-85
2021/04/13 09:11:13;;;;;;;3.67;2.13;;;26.00;56.30;;;;;;5046054;28;19912;-85
2021/04/13 09:13:40;;;;;;;6.22;2.08;;;26.00;55.50;;;;;;5047473;28;20017;-82
2021/04/13 09:16:06;;;;;;;5.53;2.35;;;26.10;54.50;;;;;;5046756;28;20028;-84
2021/04/13 09:18:47;;;;;;;4.50;1.83;;;26.70;53.90;;;;;;5047379;28;20476;-85
2021/04/13 09:21:25;;;;;;;6.80;2.25;;;27.30;52.80;;;;;;5046263;28;20486;-84
2021/04/13 09:24:15;;;;;;;4.63;1.73;;;28.00;52.00;;;;;;5045869;28;20523;-83
2021/04/13 09:26:56;;;;;;;6.65;2.20;;;28.40;50.70;;;;;;5045889;28;20025;-85
2021/04/13 09:29:33;;;;;;;3.13;1.67;;;28.80;50.10;;;;;;5046101;28;20047;-85
2021/04/13 09:32:01;;;;;;;5.82;1.65;;;29.30;49.00;;;;;;5046419;28;20047;-84
2021/04/13 09:34:35;;;;;;;5.10;2.05;;;29.50;48.50;;;;;;5047470;28;20039;-83
2021/04/13 09:37:31;;;;;;;6.88;1.90;;;29.80;47.30;;;;;;5048044;28;20028;-85
2021/04/13 09:40:03;;;;;;;6.80;1.58;;;29.90;46.90;;;;;;5046012;28;20299;-86
2021/04/13 09:43:06;;;;;;;6.13;2.35;;;30.00;46.40;;;;;;5046826;28;20482;-83
2021/04/13 09:45:43;;;;;;;6.15;1.83;;;29.90;46.10;;;;;;5046089;28;20094;-86
2021/04/13 09:48:43;;;;;;;6.68;1.63;;;30.50;46.30;;;;;;5048093;28;20439;-84
2021/04/13 09:51:24;;;;;;;8.38;2.35;;;31.00;45.50;;;;;;5046541;28;20029;-85
2021/04/13 09:53:55;;;;;;;7.22;2.00;;;30.30;44.70;;;;;;5046608;28;20017;-84
2021/04/13 09:56:39;;;;;;;4.93;1.70;;;29.40;44.00;;;;;;5047307;28;20033;-84
2021/04/13 09:59:17;;;;;;;8.52;2.03;;;28.90;45.20;;;;;;5047607;28;20383;-84
2021/04/13 10:02:16;;;;;;;5.75;2.40;;;29.20;44.90;;;;;;5048022;28;20043;-83
2021/04/13 10:04:59;;;;;;;5.30;1.55;;;29.90;45.00;;;;;;5046543;28;20025;-83
2021/04/13 10:07:51;;;;;;;6.25;1.52;;;30.60;44.50;;;;;;5045999;28;20465;-85
2021/04/13 10:10:37;;;;;;;7.85;1.88;;;31.30;44.00;;;;;;5051999;28;20110;-85
2021/04/13 10:13:18;;;;;;;4.85;1.33;;;31.40;42.60;;;;;;5051699;28;20033;-85
2021/04/13 10:16:12;;;;;;;4.38;1.63;;;30.40;42.30;;;;;;5050507;28;20468;-86
2021/04/13 10:18:57;;;;;;;4.82;1.30;;;29.70;43.10;;;;;;5050892;28;20087;-86
2021/04/13 10:22:00;;;;;;;6.05;1.50;;;29.10;42.20;;;;;;5050845;28;20017;-87
2021/04/13 10:24:41;;;;;;;4.15;1.58;;;27.40;41.90;;;;;;5052538;28;20032;-83
2021/04/13 10:27:44;;;;;;;4.57;1.52;;;25.80;43.20;;;;;;5052349;28;20109;-83
2021/04/13 10:30:47;;;;;;;12.20;2.47;;;26.00;44.70;;;;;;5049518;28;20087;-84
2021/04/13 10:33:32;;;;;;;6.40;1.55;;;27.60;44.70;;;;;;5049208;28;20455;-87
2021/04/13 10:36:26;;;;;;;4.28;1.20;;;28.40;43.60;;;;;;5048535;28;20456;-85
2021/04/13 10:39:04;;;;;;;8.18;2.20;;;29.30;43.50;;;;;;5048381;28;20391;-86
2021/04/13 10:41:38;;;;;;;8.57;1.80;;;29.00;41.10;;;;;;5050468;28;20030;-87
2021/04/13 10:44:10;;;;;;;4.93;1.30;;;27.80;41.40;;;;;;5049838;28;20479;-86
2021/04/13 10:46:52;;;;;;;13.00;1.63;;;27.50;42.70;;;;;;5051017;28;20607;-85
2021/04/13 10:49:52;;;;;;;4.05;1.48;;;28.00;42.70;;;;;;5049856;28;20029;-85
2021/04/13 10:52:39;;;;;;;5.32;1.92;;;28.10;41.60;;;;;;5050100;28;20116;-86
2021/04/13 10:55:14;;;;;;;6.07;1.75;;;27.00;41.10;;;;;;5050005;28;20053;-84
2021/04/13 10:58:17;;;;;;;5.28;1.20;;;25.70;41.60;;;;;;5049333;28;20043;-85
2021/04/13 11:01:09;;;;;;;9.80;1.40;;;24.80;42.00;;;;;;5049700;28;20025;-84
2021/04/13 11:03:40;;;;;;;5.70;1.30;;;24.30;42.90;;;;;;5049337;28;20033;-83
2021/04/13 11:06:41;;;;;;;4.80;2.40;;;23.70;42.90;;;;;;5048575;28;20038;-85
2021/04/13 11:09:39;;;;;;;8.73;2.17;;;23.20;44.00;;;;;;5037926;28;20204;-85
2021/04/13 11:12:30;;;;;;;8.38;1.60;;;23.00;44.00;;;;;;5051368;28;20058;-86
2021/04/13 11:15:03;;;;;;;8.48;1.77;;;22.70;44.10;;;;;;5051175;28;20241;-73
2021/04/13 11:17:54;;;;;;;4.53;1.08;;;22.50;44.80;;;;;;5050974;28;20116;-86
2021/04/13 11:20:35;;;;;;;6.05;0.90;;;22.80;44.20;;;;;;5051576;28;20025;-86
2021/04/13 11:23:35;;;;;;;6.60;1.80;;;22.60;43.70;;;;;;5053341;28;20021;-85
2021/04/13 11:26:00;;;;;;;6.78;2.78;;;22.70;44.70;;;;;;5049378;28;20120;-84
2021/04/13 11:28:41;;;;;;;6.55;1.73;;;23.80;44.40;;;;;;5049137;28;20517;-84
2021/04/13 11:31:14;;;;;;;6.85;1.67;;;24.20;43.00;;;;;;5049923;28;20033;-87
2021/04/13 11:34:04;;;;;;;5.13;1.70;;;23.80;42.40;;;;;;5051655;28;20017;-85
2021/04/13 11:36:49;;;;;;;6.55;2.20;;;23.40;42.40;;;;;;5050118;28;20060;-86
2021/04/13 11:39:31;;;;;;;3.05;1.10;;;23.00;42.70;;;;;;5051398;28;20021;-86
2021/04/13 11:42:23;;;;;;;3.80;1.20;;;22.60;43.10;;;;;;5051030;28;20032;-86
2021/04/13 11:44:52;;;;;;;3.00;1.30;;;22.10;43.30;;;;;;5049525;28;20028;-85
2021/04/13 11:47:53;;;;;;;2.60;1.23;;;22.50;44.70;;;;;;5049113;28;20028;-84
2021/04/13 11:50:39;;;;;;;4.63;1.00;;;24.20;45.20;;;;;;5049001;28;20028;-84
2021/04/13 11:53:13;;;;;;;12.02;2.05;;;25.90;43.50;;;;;;5048419;28;20052;-84
2021/04/13 11:55:41;;;;;;;3.75;1.50;;;27.30;43.10;;;;;;5050310;28;20035;-87
2021/04/13 11:58:21;;;;;;;4.85;1.73;;;27.90;42.00;;;;;;5050999;28;20375;-87
2021/04/13 12:01:13;;;;;;;5.05;1.33;;;27.80;41.20;;;;;;5048147;28;20487;-75
2021/04/13 12:03:56;;;;;;;4.20;1.23;;;27.40;40.90;;;;;;5042488;28;20036;-84
2021/04/13 12:06:52;;;;;;;5.90;1.17;;;27.50;40.80;;;;;;5050881;28;20033;-85
2021/04/13 12:09:44;;;;;;;3.22;0.90;;;27.50;40.80;;;;;;5045885;28;20048;-83
2021/04/13 12:12:34;;;;;;;3.00;0.80;;;28.20;40.60;;;;;;5048179;28;20090;-84
2021/04/13 12:15:12;;;;;;;7.70;1.52;;;28.60;40.10;;;;;;5048914;28;20530;-85
2021/04/13 12:17:42;;;;;;;3.10;1.00;;;29.00;39.80;;;;;;5050035;28;20025;-88
2021/04/13 12:20:29;;;;;;;5.63;1.08;;;29.10;39.40;;;;;;5048242;28;20451;-87
2021/04/13 12:23:04;;;;;;;3.10;1.10;;;29.20;39.40;;;;;;5048077;28;20029;-86
2021/04/13 12:25:33;;;;;;;3.22;1.08;;;29.20;38.70;;;;;;5048412;28;20464;-86
2021/04/13 12:28:13;;;;;;;4.97;0.95;;;28.60;38.60;;;;;;5047737;28;20086;-86
2021/04/13 12:30:42;;;;;;;4.10;1.00;;;28.40;39.00;;;;;;5047823;28;20457;-86
2021/04/13 12:33:31;;;;;;;10.27;1.40;;;27.70;38.70;;;;;;5046920;28;20032;-84
2021/04/13 12:36:08;;;;;;;5.43;1.17;;;26.70;39.00;;;;;;5037411;28;20072;-86
2021/04/13 12:38:51;;;;;;;2.65;1.02;;;25.80;39.60;;;;;;5048455;28;20036;-87
2021/04/13 12:41:21;;;;;;;6.68;1.67;;;24.70;40.20;;;;;;5048026;28;20013;-85
2021/04/13 12:43:56;;;;;;;5.78;1.10;;;23.60;41.00;;;;;;5049631;28;20040;-84
2021/04/13 12:46:34;;;;;;;4.45;1.15;;;22.70;42.00;;;;;;5048846;28;20028;-86
2021/04/13 12:49:11;;;;;;;3.67;1.08;;;22.00;42.90;;;;;;5047549;28;20021;-85
2021/04/13 12:52:14;;;;;;;3.55;1.15;;;21.50;43.20;;;;;;5047954;28;20098;-83
2021/04/13 12:54:41;;;;;;;3.05;1.30;;;21.00;43.50;;;;;;5046760;28;20520;-82
2021/04/13 12:57:13;;;;;;;2.80;1.10;;;20.60;43.50;;;;;;5048097;28;20182;-84
2021/04/13 12:59:40;;;;;;;3.33;1.13;;;20.20;44.00;;;;;;5047272;28;20024;-83
2021/04/13 13:02:32;;;;;;;5.07;1.35;;;20.00;44.40;;;;;;5031219;28;20029;-84
2021/04/13 13:04:58;;;;;;;6.53;1.23;;;19.80;44.90;;;;;;5048422;28;20017;-85
2021/04/13 13:07:27;;;;;;;3.50;1.33;;;19.60;45.00;;;;;;5048236;28;20080;-86
2021/04/13 13:09:53;;;;;;;1.02;0.80;;;19.60;45.50;;;;;;5048172;28;20021;-83
2021/04/13 13:12:32;;;;;;;2.28;1.02;;;19.70;45.70;;;;;;5014322;28;20484;-85
2021/04/13 13:15:05;;;;;;;7.13;1.08;;;19.90;45.70;;;;;;5047069;28;20028;-83
2021/04/13 13:17:35;;;;;;;3.80;1.10;;;20.10;45.40;;;;;;5048019;28;20480;-85
2021/04/13 13:20:04;;;;;;;5.18;1.25;;;20.10;45.10;;;;;;5047608;28;20073;-84
2021/04/13 13:22:32;;;;;;;5.15;1.50;;;20.00;45.10;;;;;;5046989;28;20036;-85
2021/04/13 13:25:14;;;;;;;5.07;1.20;;;19.80;45.50;;;;;;5031116;28;20025;-85
2021/04/13 13:27:39;;;;;;;5.22;1.10;;;19.60;45.50;;;;;;5048701;28;20032;-87
2021/04/13 13:30:13;;;;;;;3.90;1.17;;;19.40;45.60;;;;;;5031294;28;20459;-84
2021/04/13 13:32:40;;;;;;;3.25;1.05;;;19.30;45.70;;;;;;5048413;28;20028;-83
2021/04/13 13:35:10;;;;;;;3.72;1.15;;;19.10;45.70;;;;;;5030737;28;20067;-83
2021/04/13 13:37:41;;;;;;;3.28;2.25;;;18.90;46.10;;;;;;5047234;28;20494;-86
2021/04/13 13:40:17;;;;;;;2.78;1.20;;;18.80;46.40;;;;;;5047354;28;20475;-85
2021/04/13 13:42:44;;;;;;;4.68;1.30;;;18.80;46.50;;;;;;5047811;28;20021;-85
2021/04/13 13:45:23;;;;;;;4.15;1.23;;;18.90;46.60;;;;;;5053675;28;20089;-85